createdAt,value
2023-10-30T00:00:41.157Z,16.65
2023-10-30T00:02:43.359Z,12.70
2023-10-30T00:04:45.868Z,10.68
2023-10-30T00:06:47.895Z,15.02
2023-10-30T00:08:50.058Z,13.45
2023-10-30T00:10:52.046Z,12.40
2023-10-30T00:12:54.040Z,12.55
2023-10-30T00:14:58.276Z,11.55
2023-10-30T00:17:00.333Z,10.82
2023-10-30T00:19:04.647Z,11.23
2023-10-30T00:21:06.898Z,15.18
2023-10-30T00:23:09.098Z,14.15
2023-10-30T00:25:11.143Z,16.67
2023-10-30T00:27:13.257Z,7.80
2023-10-30T00:29:15.275Z,17.10
2023-10-30T00:31:18.669Z,15.02
2023-10-30T00:33:20.740Z,12.32
2023-10-30T00:35:22.795Z,13.48
2023-10-30T00:37:24.902Z,16.40
2023-10-30T00:39:28.609Z,14.18
2023-10-30T00:41:30.674Z,13.57
2023-10-30T00:43:32.731Z,15.50
2023-10-30T00:45:34.750Z,13.65
2023-10-30T00:47:39.825Z,13.10
2023-10-30T00:49:41.959Z,12.43
2023-10-30T00:51:44.025Z,16.77
2023-10-30T00:53:47.400Z,12.60
2023-10-30T00:55:50.591Z,13.88
2023-10-30T00:57:55.949Z,16.33
2023-10-30T00:59:58.068Z,12.38
2023-10-30T01:02:00.166Z,14.70
2023-10-30T01:04:03.757Z,14.52
2023-10-30T01:06:06.389Z,15.98
2023-10-30T01:08:10.218Z,10.88
2023-10-30T01:10:12.382Z,15.25
2023-10-30T01:12:14.402Z,13.48
2023-10-30T01:14:16.443Z,12.32
2023-10-30T01:16:18.463Z,15.45
2023-10-30T01:18:20.995Z,12.60
2023-10-30T01:20:24.350Z,18.90
2023-10-30T01:22:26.333Z,18.98
2023-10-30T01:24:28.573Z,13.40
2023-10-30T01:26:30.531Z,14.52
2023-10-30T01:28:32.550Z,18.30
2023-10-30T01:30:34.701Z,18.83
2023-10-30T01:32:37.626Z,16.50
2023-10-30T01:34:39.831Z,13.80
2023-10-30T01:36:43.261Z,14.55
2023-10-30T01:38:45.319Z,15.52
2023-10-30T01:40:48.261Z,10.13
2023-10-30T01:42:50.672Z,10.98
2023-10-30T01:44:56.530Z,11.77
2023-10-30T01:46:58.632Z,15.85
2023-10-30T01:49:01.125Z,11.65
2023-10-30T01:51:05.727Z,17.20
2023-10-30T01:53:09.246Z,13.57
2023-10-30T01:55:11.590Z,16.75
2023-10-30T01:57:14.431Z,16.13
2023-10-30T01:59:16.522Z,14.80
2023-10-30T02:01:18.689Z,12.32
2023-10-30T02:03:21.155Z,13.45
2023-10-30T02:05:23.329Z,12.80
2023-10-30T02:07:25.898Z,13.38
2023-10-30T02:09:29.399Z,14.68
2023-10-30T02:11:31.545Z,14.95
2023-10-30T02:13:33.549Z,12.43
2023-10-30T02:15:35.936Z,12.23
2023-10-30T02:17:39.507Z,15.48
2023-10-30T02:19:41.696Z,15.05
2023-10-30T02:21:43.863Z,16.05
2023-10-30T02:23:46.258Z,11.25
2023-10-30T02:25:49.678Z,19.58
2023-10-30T02:27:51.889Z,14.05
2023-10-30T02:29:53.889Z,11.73
2023-10-30T02:31:55.942Z,14.10
2023-10-30T02:33:58.187Z,12.93
2023-10-30T02:36:00.293Z,13.75
2023-10-30T02:38:02.322Z,12.82
2023-10-30T02:40:05.023Z,17.15
2023-10-30T02:42:09.462Z,13.10
2023-10-30T02:44:11.473Z,17.90
2023-10-30T02:46:13.633Z,11.63
2023-10-30T02:48:15.914Z,9.57
2023-10-30T02:50:17.976Z,18.50
2023-10-30T02:52:20.084Z,15.40
2023-10-30T02:54:22.153Z,12.57
2023-10-30T02:56:24.228Z,11.32
2023-10-30T02:58:27.733Z,13.35
2023-10-30T03:00:29.780Z,19.40
2023-10-30T03:02:34.271Z,9.70
2023-10-30T03:04:36.539Z,14.65
2023-10-30T03:06:38.736Z,13.25
2023-10-30T03:08:40.814Z,13.38
2023-10-30T03:10:42.887Z,12.00
2023-10-30T03:12:44.947Z,13.48
2023-10-30T03:14:49.100Z,14.98
2023-10-30T03:16:54.179Z,12.15
2023-10-30T03:20:58.022Z,14.10
2023-10-30T03:22:59.981Z,9.40
2023-10-30T03:25:02.031Z,8.63
2023-10-30T03:27:04.202Z,10.60
2023-10-30T03:29:06.284Z,13.82
2023-10-30T03:31:13.005Z,11.02
2023-10-30T03:33:15.226Z,11.02
2023-10-30T03:35:17.585Z,10.25
2023-10-30T03:37:20.001Z,11.93
2023-10-30T03:39:22.062Z,12.68
2023-10-30T03:41:24.444Z,17.25
2023-10-30T03:43:26.602Z,12.38
2023-10-30T03:45:28.620Z,12.60
2023-10-30T03:47:32.208Z,11.10
2023-10-30T03:49:34.248Z,9.00
2023-10-30T03:51:36.298Z,12.60
2023-10-30T03:53:38.333Z,13.52
2023-10-30T03:55:40.698Z,12.00
2023-10-30T03:57:45.048Z,15.85
2023-10-30T03:59:47.444Z,14.25
2023-10-30T04:01:50.353Z,11.93
2023-10-30T04:03:54.688Z,14.75
2023-10-30T04:06:01.394Z,11.63
2023-10-30T04:08:03.517Z,16.52
2023-10-30T04:10:06.462Z,12.18
2023-10-30T04:12:11.244Z,16.05
2023-10-30T04:14:13.263Z,17.35
2023-10-30T04:16:17.063Z,9.75
2023-10-30T04:18:19.297Z,14.55
2023-10-30T04:20:22.877Z,10.60
2023-10-30T04:22:24.830Z,11.73
2023-10-30T04:24:26.875Z,11.73
2023-10-30T04:26:28.983Z,13.98
2023-10-30T04:28:31.273Z,10.60
2023-10-30T04:30:33.616Z,10.07
2023-10-30T04:32:35.730Z,9.43
2023-10-30T04:34:37.959Z,11.63
2023-10-30T04:36:41.339Z,10.15
2023-10-30T04:38:43.418Z,14.68
2023-10-30T04:40:45.537Z,13.32
2023-10-30T04:42:47.711Z,14.88
2023-10-30T04:44:49.781Z,13.38
2023-10-30T04:46:51.820Z,14.10
2023-10-30T04:48:53.923Z,10.85
2023-10-30T04:50:55.950Z,8.48
2023-10-30T04:52:59.376Z,17.98
2023-10-30T04:55:01.407Z,9.82
2023-10-30T04:57:03.829Z,8.77
2023-10-30T04:59:05.950Z,12.25
2023-10-30T05:01:11.171Z,14.63
2023-10-30T05:03:13.213Z,12.45
2023-10-30T05:05:15.396Z,12.77
2023-10-30T05:07:17.465Z,10.57
2023-10-30T05:09:20.925Z,12.75
2023-10-30T05:11:22.934Z,12.48
2023-10-30T05:13:24.883Z,13.20
2023-10-30T05:15:26.856Z,8.77
2023-10-30T05:17:30.422Z,9.93
2023-10-30T05:19:32.466Z,10.32
2023-10-30T05:21:34.651Z,9.57
2023-10-30T05:23:36.672Z,17.13
2023-10-30T05:25:43.270Z,12.05
2023-10-30T05:27:45.589Z,9.07
2023-10-30T05:29:48.038Z,12.13
2023-10-30T05:31:50.467Z,10.35
2023-10-30T05:33:52.457Z,11.05
2023-10-30T05:35:54.690Z,8.82
2023-10-30T05:37:57.362Z,9.45
2023-10-30T05:39:59.615Z,10.68
2023-10-30T05:42:03.481Z,11.93
2023-10-30T05:44:05.825Z,8.00
2023-10-30T05:46:07.935Z,10.48
2023-10-30T05:48:10.039Z,10.27
2023-10-30T05:50:12.071Z,9.52
2023-10-30T05:52:14.191Z,14.05
2023-10-30T05:54:16.228Z,8.98
2023-10-30T05:56:18.306Z,10.32
2023-10-30T05:58:21.658Z,9.10
2023-10-30T06:00:24.645Z,6.13
2023-10-30T06:02:26.820Z,11.50
2023-10-30T06:04:28.889Z,9.15
2023-10-30T06:06:31.336Z,9.00
2023-10-30T06:08:33.437Z,11.50
2023-10-30T06:10:35.514Z,7.93
2023-10-30T06:12:37.619Z,10.52
2023-10-30T06:14:40.940Z,9.13
2023-10-30T06:16:44.440Z,6.82
2023-10-30T06:18:46.595Z,6.53
2023-10-30T06:20:48.630Z,9.45
2023-10-30T06:22:50.679Z,7.90
2023-10-30T06:24:52.771Z,8.60
2023-10-30T06:26:54.871Z,8.95
2023-10-30T06:28:57.560Z,7.68
2023-10-30T06:31:01.008Z,9.52
2023-10-30T06:33:03.373Z,8.77
2023-10-30T06:35:07.936Z,4.95
2023-10-30T06:37:10.928Z,10.48
2023-10-30T06:39:14.570Z,7.60
2023-10-30T06:41:16.579Z,6.90
2023-10-30T06:43:18.617Z,9.15
2023-10-30T06:45:20.683Z,9.13
2023-10-30T06:47:24.124Z,10.88
2023-10-30T06:49:27.792Z,8.98
2023-10-30T06:51:29.805Z,9.73
2023-10-30T06:53:31.956Z,5.18
2023-10-30T06:55:36.444Z,9.57
2023-10-30T06:57:39.139Z,8.07
2023-10-30T06:59:42.196Z,5.18
2023-10-30T07:01:45.116Z,7.05
2023-10-30T07:03:48.984Z,10.73
2023-10-30T07:05:51.084Z,8.07
2023-10-30T07:07:53.148Z,5.35
2023-10-30T07:09:55.256Z,11.90
2023-10-30T07:11:57.274Z,8.18
2023-10-30T07:13:59.883Z,7.55
2023-10-30T07:16:02.077Z,10.57
2023-10-30T07:18:04.459Z,8.15
2023-10-30T07:20:09.971Z,12.73
2023-10-30T07:22:11.998Z,8.18
2023-10-30T07:24:14.014Z,10.88
2023-10-30T07:26:18.082Z,8.68
2023-10-30T07:28:20.124Z,7.53
2023-10-30T07:30:24.303Z,12.82
2023-10-30T07:32:26.422Z,11.82
2023-10-30T07:34:28.615Z,11.00
2023-10-30T07:36:32.100Z,6.90
2023-10-30T07:38:34.407Z,8.52
2023-10-30T07:40:36.771Z,13.18
2023-10-30T07:42:40.637Z,9.60
2023-10-30T07:44:42.788Z,20.65
2023-10-30T07:46:45.331Z,41.80
2023-10-30T07:48:47.454Z,30.88
2023-10-30T07:50:49.619Z,23.42
2023-10-30T07:52:52.932Z,43.50
2023-10-30T07:54:54.950Z,17.58
2023-10-30T07:56:57.068Z,28.15
2023-10-30T07:58:59.161Z,25.95
2023-10-30T08:01:01.300Z,14.32
2023-10-30T08:03:04.766Z,9.23
2023-10-30T08:05:07.820Z,10.60
2023-10-30T08:07:09.925Z,10.98
2023-10-30T08:09:13.342Z,22.05
2023-10-30T08:11:15.346Z,10.85
2023-10-30T08:13:17.382Z,10.45
2023-10-30T08:15:19.386Z,12.30
2023-10-30T08:17:21.369Z,15.15
2023-10-30T08:19:23.346Z,9.90
2023-10-30T08:21:25.670Z,9.40
2023-10-30T08:23:27.695Z,17.00
2023-10-30T08:25:31.052Z,13.40
2023-10-30T08:27:33.838Z,8.65
2023-10-30T08:29:35.897Z,8.77
2023-10-30T08:31:39.642Z,15.27
2023-10-30T08:33:42.120Z,10.77
2023-10-30T08:35:44.301Z,8.35
2023-10-30T08:37:46.471Z,8.00
2023-10-30T08:39:48.839Z,11.13
2023-10-30T08:41:52.693Z,12.50
2023-10-30T08:43:54.826Z,10.32
2023-10-30T08:45:56.890Z,12.00
2023-10-30T08:48:08.542Z,10.45
2023-10-30T08:50:19.910Z,13.32
2023-10-30T08:52:22.310Z,7.72
2023-10-30T08:54:24.619Z,9.40
2023-10-30T08:56:26.648Z,11.55
2023-10-30T08:58:30.386Z,11.68
2023-10-30T09:00:32.531Z,14.52
2023-10-30T09:02:34.604Z,11.75
2023-10-30T09:04:37.806Z,15.45
2023-10-30T09:06:40.351Z,11.10
2023-10-30T09:08:42.652Z,9.27
2023-10-30T09:10:44.688Z,10.70
2023-10-30T09:12:46.853Z,8.75
2023-10-30T09:14:50.264Z,11.63
2023-10-30T09:16:53.134Z,7.95
2023-10-30T09:18:56.125Z,12.43
2023-10-30T09:20:58.279Z,7.68
2023-10-30T09:23:00.336Z,11.35
2023-10-30T09:25:02.395Z,6.00
2023-10-30T09:27:04.667Z,11.43
2023-10-30T09:29:06.681Z,7.05
2023-10-30T09:31:10.052Z,11.40
2023-10-30T09:33:12.318Z,11.13
2023-10-30T09:35:14.597Z,10.18
2023-10-30T09:37:16.710Z,11.18
2023-10-30T09:39:18.692Z,4.70
2023-10-30T09:41:21.345Z,6.05
2023-10-30T09:43:26.700Z,6.15
2023-10-30T09:45:28.998Z,6.47
2023-10-30T09:47:33.001Z,5.20
2023-10-30T09:49:36.790Z,4.10
2023-10-30T09:51:40.572Z,7.15
2023-10-30T09:53:43.997Z,7.22
2023-10-30T09:55:48.434Z,5.22
2023-10-30T09:57:54.660Z,6.20
2023-10-30T09:59:58.105Z,5.63
2023-10-30T10:02:00.710Z,8.00
2023-10-30T10:04:04.916Z,6.00
2023-10-30T10:06:07.571Z,7.97
2023-10-30T10:08:09.784Z,6.85
2023-10-30T10:10:11.945Z,5.03
2023-10-30T10:12:22.241Z,5.15
2023-10-30T10:14:24.453Z,14.88
2023-10-30T10:16:27.863Z,9.02
2023-10-30T10:18:31.384Z,9.13
2023-10-30T10:20:34.828Z,6.55
2023-10-30T10:22:37.010Z,5.25
2023-10-30T10:24:39.163Z,5.85
2023-10-30T10:26:42.026Z,7.03
2023-10-30T10:28:45.580Z,8.82
2023-10-30T10:30:48.093Z,6.38
2023-10-30T10:32:50.656Z,6.28
2023-10-30T10:34:53.210Z,8.38
2023-10-30T10:37:00.225Z,6.13
2023-10-30T10:39:02.390Z,5.93
2023-10-30T10:41:05.699Z,7.10
2023-10-30T10:43:09.596Z,8.38
2023-10-30T10:45:12.379Z,16.77
2023-10-30T10:47:14.593Z,6.40
2023-10-30T10:49:16.644Z,18.58
2023-10-30T10:51:28.837Z,9.32
2023-10-30T10:53:35.752Z,15.20
2023-10-30T10:55:43.368Z,6.70
2023-10-30T10:57:52.249Z,10.55
2023-10-30T10:59:57.026Z,15.75
2023-10-30T11:02:00.513Z,11.85
2023-10-30T11:04:03.986Z,5.78
2023-10-30T11:06:07.571Z,8.27
2023-10-30T11:08:32.931Z,10.98
2023-10-30T11:10:41.096Z,7.95
2023-10-30T11:12:53.668Z,9.73
2023-10-30T11:15:04.474Z,6.50
2023-10-30T11:17:06.836Z,7.13
2023-10-30T11:19:08.887Z,7.25
2023-10-30T11:21:12.754Z,7.93
2023-10-30T11:23:48.518Z,7.68
2023-10-30T11:25:56.839Z,6.97
2023-10-30T11:27:59.123Z,8.20
2023-10-30T11:30:04.665Z,7.45
2023-10-30T11:32:06.960Z,12.63
2023-10-30T11:34:13.891Z,9.98
2023-10-30T11:36:28.254Z,7.57
2023-10-30T11:38:47.244Z,6.68
2023-10-30T11:41:05.576Z,6.55
2023-10-30T11:43:08.654Z,6.40
2023-10-30T11:45:33.878Z,8.98
2023-10-30T11:47:37.255Z,7.25
2023-10-30T11:49:43.188Z,7.28
2023-10-30T11:51:47.467Z,9.05
2023-10-30T11:53:51.907Z,7.40
2023-10-30T11:55:54.895Z,8.10
2023-10-30T11:57:59.854Z,8.68
2023-10-30T12:00:02.553Z,6.68
2023-10-30T12:02:06.588Z,9.88
2023-10-30T12:04:08.843Z,7.45
2023-10-30T12:06:11.421Z,6.10
2023-10-30T12:08:14.313Z,7.18
2023-10-30T12:10:16.512Z,7.20
2023-10-30T12:12:18.558Z,11.88
2023-10-30T12:14:22.481Z,6.43
2023-10-30T12:16:24.948Z,5.05
2023-10-30T12:18:27.185Z,8.48
2023-10-30T12:20:29.373Z,5.20
2023-10-30T12:22:31.833Z,4.82
2023-10-30T12:24:35.104Z,8.20
2023-10-30T12:26:40.613Z,8.85
2023-10-30T12:28:44.717Z,6.40
2023-10-30T12:30:48.216Z,9.45
2023-10-30T12:32:55.114Z,5.95
2023-10-30T12:35:07.524Z,5.55
2023-10-30T12:37:27.621Z,8.73
2023-10-30T12:39:29.741Z,6.22
2023-10-30T12:41:32.361Z,5.00
2023-10-30T12:43:39.062Z,5.40
2023-10-30T12:45:41.126Z,8.25
2023-10-30T12:47:46.774Z,13.45
2023-10-30T12:49:48.768Z,9.20
2023-10-30T12:51:50.909Z,10.65
2023-10-30T12:53:52.903Z,9.15
2023-10-30T12:55:54.915Z,10.20
2023-10-30T12:57:57.246Z,9.00
2023-10-30T12:59:59.833Z,6.38
2023-10-30T13:02:02.683Z,4.85
2023-10-30T13:04:06.496Z,5.57
2023-10-30T13:06:08.708Z,4.28
2023-10-30T13:08:10.756Z,8.57
2023-10-30T13:10:12.748Z,4.47
2023-10-30T13:12:14.834Z,5.28
2023-10-30T13:14:17.130Z,3.88
2023-10-30T13:16:21.171Z,4.35
2023-10-30T13:18:24.815Z,5.00
2023-10-30T13:20:28.961Z,5.70
2023-10-30T13:22:30.945Z,5.30
2023-10-30T13:24:33.140Z,2.00
2023-10-30T13:26:35.537Z,2.60
2023-10-30T13:28:37.644Z,2.05
2023-10-30T13:30:39.938Z,3.67
2023-10-30T13:32:41.944Z,3.03
2023-10-30T13:34:44.328Z,1.88
2023-10-30T13:36:47.894Z,2.40
2023-10-30T13:38:49.929Z,2.92
2023-10-30T13:40:52.573Z,2.72
2023-10-30T13:42:56.043Z,1.55
2023-10-30T13:44:58.052Z,2.83
2023-10-30T13:47:00.074Z,3.70
2023-10-30T13:49:02.263Z,2.78
2023-10-30T13:51:05.460Z,3.70
2023-10-30T13:53:09.147Z,5.43
2023-10-30T13:55:11.466Z,2.75
2023-10-30T13:57:13.629Z,3.80
2023-10-30T13:59:15.819Z,4.15
2023-10-30T14:01:21.169Z,3.97
2023-10-30T14:03:25.067Z,3.03
2023-10-30T14:05:29.269Z,6.80
2023-10-30T14:07:31.535Z,3.65
2023-10-30T14:09:34.925Z,5.03
2023-10-30T14:11:36.964Z,5.47
2023-10-30T14:13:38.920Z,3.90
2023-10-30T14:15:40.922Z,2.05
2023-10-30T14:17:42.966Z,2.28
2023-10-30T14:19:45.099Z,2.35
2023-10-30T14:21:47.556Z,2.80
2023-10-30T14:23:49.644Z,1.95
2023-10-30T14:25:52.973Z,3.28
2023-10-30T14:27:55.032Z,2.67
2023-10-30T14:29:57.117Z,3.70
2023-10-30T14:31:59.480Z,2.35
2023-10-30T14:34:01.913Z,5.75
2023-10-30T14:36:04.680Z,1.20
2023-10-30T14:38:06.887Z,1.17
2023-10-30T14:40:11.060Z,2.38
2023-10-30T14:42:14.481Z,1.40
2023-10-30T14:44:16.496Z,1.48
2023-10-30T14:46:18.991Z,2.72
2023-10-30T14:48:21.534Z,3.40
2023-10-30T14:50:23.608Z,1.65
2023-10-30T14:52:25.643Z,2.35
2023-10-30T14:54:28.041Z,3.85
2023-10-30T14:56:31.483Z,4.63
2023-10-30T14:58:35.248Z,4.05
2023-10-30T15:00:37.613Z,2.85
2023-10-30T15:02:39.898Z,2.50
2023-10-30T15:04:42.023Z,2.28
2023-10-30T15:06:44.118Z,3.50
2023-10-30T15:08:46.178Z,2.40
2023-10-30T15:10:48.393Z,1.85
2023-10-30T15:12:50.614Z,2.92
2023-10-30T15:14:54.075Z,1.30
2023-10-30T15:16:56.526Z,2.00
2023-10-30T15:18:58.621Z,1.45
2023-10-30T15:21:00.732Z,1.73
2023-10-30T15:23:02.826Z,1.63
2023-10-30T15:25:05.599Z,2.47
2023-10-30T15:27:08.543Z,1.33
2023-10-30T15:29:10.550Z,2.03
2023-10-30T15:31:13.962Z,1.25
2023-10-30T15:33:16.242Z,2.03
2023-10-30T15:35:18.569Z,4.60
2023-10-30T15:37:20.603Z,1.45
2023-10-30T15:39:22.585Z,2.50
2023-10-30T15:41:24.604Z,2.85
2023-10-30T15:43:26.758Z,3.42
2023-10-30T15:45:28.972Z,3.78
2023-10-30T15:47:35.513Z,2.70
2023-10-30T15:49:37.978Z,1.63
2023-10-30T15:51:40.039Z,2.92
2023-10-30T15:57:56.182Z,2.95
2023-10-30T15:59:58.291Z,1.98
2023-10-30T16:02:00.543Z,1.75
2023-10-30T16:04:04.559Z,2.53
2023-10-30T16:06:09.395Z,3.13
2023-10-30T16:08:45.893Z,1.52
2023-10-30T16:10:34.763Z,1.20
2023-10-30T16:12:38.146Z,2.73
2023-10-30T16:14:40.509Z,2.85
2023-10-30T16:16:42.792Z,2.53
2023-10-30T16:22:56.399Z,2.10
2023-10-30T16:24:58.465Z,1.25
2023-10-30T16:27:00.696Z,1.30
2023-10-30T16:29:05.100Z,2.05
2023-10-30T16:31:07.195Z,1.63
2023-10-30T16:33:09.297Z,1.95
2023-10-30T16:35:11.299Z,2.88
2023-10-30T16:37:14.806Z,1.63
2023-10-30T16:39:16.882Z,3.85
2023-10-30T16:41:20.753Z,2.00
2023-10-30T16:43:22.755Z,1.98
2023-10-30T16:45:24.741Z,2.92
2023-10-30T16:47:26.725Z,2.10
2023-10-30T16:49:28.973Z,1.55
2023-10-30T16:51:31.015Z,0.93
2023-10-30T16:53:35.573Z,3.13
2023-10-30T16:55:37.609Z,1.80
2023-10-30T16:57:39.662Z,4.15
2023-10-30T16:59:41.865Z,1.60
2023-10-30T17:01:43.937Z,2.58
2023-10-30T17:03:48.472Z,3.10
2023-10-30T17:05:50.571Z,2.38
2023-10-30T17:07:52.724Z,2.63
2023-10-30T17:09:56.122Z,2.45
2023-10-30T17:11:58.136Z,5.30
2023-10-30T17:14:00.138Z,4.57
2023-10-30T17:16:02.315Z,3.45
2023-10-30T17:18:04.521Z,3.78
2023-10-30T17:20:08.084Z,3.40
2023-10-30T17:22:10.435Z,2.97
2023-10-30T17:24:12.536Z,4.38
2023-10-30T17:26:15.926Z,5.20
2023-10-30T17:28:18.001Z,7.57
2023-10-30T17:30:20.531Z,5.90
2023-10-30T17:32:22.664Z,3.58
2023-10-30T17:34:24.835Z,3.00
2023-10-30T17:36:26.974Z,3.30
2023-10-30T17:38:29.727Z,2.88
2023-10-30T17:40:32.007Z,3.60
2023-10-30T17:42:35.511Z,2.38
2023-10-30T17:44:37.524Z,3.22
2023-10-30T17:46:41.106Z,4.63
2023-10-30T17:48:43.356Z,7.28
2023-10-30T17:50:45.317Z,4.75
2023-10-30T17:52:49.380Z,5.13
2023-10-30T17:54:51.353Z,5.83
2023-10-30T17:56:53.369Z,6.55
2023-10-30T17:58:56.809Z,3.78
2023-10-30T18:00:58.872Z,4.47
2023-10-30T18:03:00.944Z,4.63
2023-10-30T18:05:03.500Z,2.88
2023-10-30T18:07:05.586Z,4.32
2023-10-30T18:09:08.180Z,7.90
2023-10-30T18:11:10.874Z,6.05
2023-10-30T18:13:12.941Z,5.47
2023-10-30T18:15:16.917Z,5.55
2023-10-30T18:17:19.588Z,5.40
2023-10-30T18:19:21.580Z,6.00
2023-10-30T18:21:23.656Z,3.40
2023-10-30T18:23:25.681Z,4.82
2023-10-30T18:25:27.842Z,7.53
2023-10-30T18:27:30.379Z,4.43
2023-10-30T18:29:32.616Z,3.67
2023-10-30T18:31:36.860Z,4.38
2023-10-30T18:33:40.738Z,8.00
2023-10-30T18:35:45.744Z,5.93
2023-10-30T18:37:49.307Z,4.00
2023-10-30T18:39:52.271Z,4.88
2023-10-30T18:41:54.432Z,3.25
2023-10-30T18:43:56.562Z,4.85
2023-10-30T18:45:58.658Z,4.25
2023-10-30T18:48:02.085Z,5.63
2023-10-30T18:50:05.086Z,4.20
2023-10-30T18:52:10.106Z,5.55
2023-10-30T18:54:12.681Z,5.57
2023-10-30T18:56:15.111Z,7.55
2023-10-30T18:58:18.407Z,5.82
2023-10-30T19:00:20.560Z,3.30
2023-10-30T19:02:22.637Z,3.83
2023-10-30T19:04:26.072Z,2.95
2023-10-30T19:06:28.329Z,5.40
2023-10-30T19:08:33.832Z,5.95
2023-10-30T19:10:35.938Z,4.15
2023-10-30T19:12:37.967Z,6.53
2023-10-30T19:14:40.643Z,5.55
2023-10-30T19:16:42.796Z,4.35
2023-10-30T19:18:44.858Z,4.35
2023-10-30T19:20:49.158Z,3.50
2023-10-30T19:22:51.206Z,4.55
2023-10-30T19:24:53.208Z,4.88
2023-10-30T19:26:56.342Z,4.55
2023-10-30T19:28:59.507Z,4.30
2023-10-30T19:31:03.699Z,4.40
2023-10-30T19:33:06.033Z,4.00
2023-10-30T19:35:08.462Z,4.22
2023-10-30T19:37:11.826Z,5.85
2023-10-30T19:39:13.823Z,5.18
2023-10-30T19:41:15.845Z,4.47
2023-10-30T19:43:17.962Z,3.90
2023-10-30T19:45:20.615Z,5.00
2023-10-30T19:47:23.178Z,3.50
2023-10-30T19:49:25.865Z,3.97
2023-10-30T19:51:28.133Z,4.00
2023-10-30T19:53:31.518Z,4.35
2023-10-30T19:55:33.541Z,4.57
2023-10-30T19:57:36.636Z,4.70
2023-10-30T19:59:39.840Z,2.55
2023-10-30T20:01:42.360Z,5.97
2023-10-30T20:03:44.500Z,2.60
2023-10-30T20:05:46.633Z,3.03
2023-10-30T20:07:48.808Z,2.85
2023-10-30T20:09:59.683Z,2.75
2023-10-30T20:12:07.004Z,2.80
2023-10-30T20:14:09.141Z,3.38
2023-10-30T20:16:11.225Z,3.53
2023-10-30T20:18:13.271Z,6.47
2023-10-30T20:20:15.340Z,3.92
2023-10-30T20:22:18.245Z,4.72
2023-10-30T20:24:20.782Z,2.50
2023-10-30T20:26:24.295Z,5.45
2023-10-30T20:28:26.466Z,4.63
2023-10-30T20:30:29.417Z,3.65
2023-10-30T20:32:31.460Z,3.03
2023-10-30T20:34:33.545Z,4.40
2023-10-30T20:36:36.821Z,2.22
2023-10-30T20:38:39.107Z,3.97
2023-10-30T20:40:41.845Z,5.70
2023-10-30T20:42:45.307Z,2.95
2023-10-30T20:44:47.349Z,2.03
2023-10-30T20:46:51.982Z,5.78
2023-10-30T20:48:54.078Z,3.13
2023-10-30T20:50:57.586Z,3.40
2023-10-30T20:52:59.727Z,4.55
2023-10-30T20:55:02.068Z,3.28
2023-10-30T20:57:04.992Z,5.07
2023-10-30T20:59:09.464Z,4.10
2023-10-30T21:01:11.590Z,4.68
2023-10-30T21:03:13.748Z,2.58
2023-10-30T21:05:16.021Z,3.75
2023-10-30T21:07:18.417Z,8.95
2023-10-30T21:09:21.533Z,3.67
2023-10-30T21:11:23.644Z,3.17
2023-10-30T21:13:26.580Z,3.03
2023-10-30T21:15:30.144Z,4.78
2023-10-30T21:17:32.222Z,3.17
2023-10-30T21:19:34.290Z,3.80
2023-10-30T21:21:36.758Z,6.40
2023-10-30T21:23:38.879Z,5.38
2023-10-30T21:25:40.954Z,3.92
2023-10-30T21:27:43.696Z,3.60
2023-10-30T21:29:45.757Z,4.00
2023-10-30T21:31:50.107Z,5.60
2023-10-30T21:33:52.209Z,4.53
2023-10-30T21:35:54.869Z,9.27
2023-10-30T21:37:56.884Z,3.42
2023-10-30T21:40:01.188Z,5.07
2023-10-30T21:42:03.868Z,3.53
2023-10-30T21:44:06.374Z,4.05
2023-10-30T21:46:09.667Z,4.18
2023-10-30T21:48:13.179Z,4.22
2023-10-30T21:50:15.343Z,4.40
2023-10-30T21:52:17.502Z,3.22
2023-10-30T21:54:19.635Z,5.15
2023-10-30T21:56:22.385Z,4.20
2023-10-30T21:58:24.436Z,3.40
2023-10-30T22:00:26.457Z,3.70
2023-10-30T22:02:31.555Z,3.40
2023-10-30T22:04:35.029Z,3.30
2023-10-30T22:06:38.525Z,4.72
2023-10-30T22:08:40.486Z,4.03
2023-10-30T22:10:42.519Z,2.97
2023-10-30T22:12:44.959Z,5.70
2023-10-30T22:14:47.027Z,5.15
2023-10-30T22:16:49.294Z,6.40
2023-10-30T22:18:51.437Z,4.03
2023-10-30T22:20:54.833Z,5.88
2023-10-30T22:22:56.918Z,4.78
2023-10-30T22:24:58.937Z,3.53
2023-10-30T22:27:00.982Z,6.00
2023-10-30T22:29:04.083Z,3.47
2023-10-30T22:31:06.242Z,4.82
2023-10-30T22:33:08.787Z,4.68
2023-10-30T22:35:11.462Z,2.95
2023-10-30T22:37:14.955Z,4.72
2023-10-30T22:39:16.992Z,5.95
2023-10-30T22:41:19.059Z,4.40
2023-10-30T22:43:22.970Z,4.97
2023-10-30T22:45:25.648Z,2.45
2023-10-30T22:47:27.717Z,4.85
2023-10-30T22:49:29.834Z,3.63
2023-10-30T22:51:31.855Z,2.10
2023-10-30T22:53:35.274Z,7.80
2023-10-30T22:55:37.828Z,2.72
2023-10-30T22:57:39.928Z,3.22
2023-10-30T22:59:41.983Z,3.85
2023-10-30T23:01:44.058Z,2.80
2023-10-30T23:03:46.337Z,5.25
2023-10-30T23:05:48.518Z,3.35
2023-10-30T23:07:51.036Z,4.40
2023-10-30T23:09:54.465Z,4.93
2023-10-30T23:11:56.557Z,2.13
2023-10-30T23:14:00.196Z,6.35
2023-10-30T23:16:02.345Z,6.50
2023-10-30T23:18:04.502Z,4.03
2023-10-30T23:20:10.506Z,3.60
2023-10-30T23:22:12.650Z,5.20
2023-10-30T23:24:14.626Z,2.33
2023-10-30T23:26:18.026Z,4.65
2023-10-30T23:28:21.648Z,4.40
2023-10-30T23:30:25.929Z,4.03
2023-10-30T23:32:29.578Z,6.57
2023-10-30T23:34:31.650Z,6.22
2023-10-30T23:36:33.721Z,3.30
2023-10-30T23:38:35.761Z,3.47
2023-10-30T23:40:37.846Z,4.22
2023-10-30T23:42:41.347Z,3.35
2023-10-30T23:44:46.491Z,4.57
2023-10-30T23:46:48.598Z,4.68
2023-10-30T23:48:51.500Z,5.72
2023-10-30T23:50:53.583Z,4.18
2023-10-30T23:52:56.732Z,6.72
2023-10-30T23:54:58.866Z,5.68
2023-10-30T23:57:01.209Z,4.72
2023-10-30T23:59:04.710Z,4.43
